x

Passage Island, Mi (pilm4) Weather Station

6:00pm - Fri 17th Nov 2017 All times are CST. -6 hours from GMT.

  • Wind
    14mph, 15mph gusts
  • Air Temp 35°f
  • Sea Pressure 1005.6mb
  • Passage Island, Mi
  • Passage Island, Mi

More Historic Weather Station data

Upgrade to MSW Pro to gain access to the past 30 days of data for over 8000 Wavebouys and Weather Stations around the globe.

Join

Comparision Forecast

View Surf forecast
   
Fri 11/17 6:00pm 14 15 mph 1005.6mb 35f
5:00pm 11 14 mph 1005.8mb 35f
4:00pm 15 16 mph 1006.3mb 35f
3:00pm 18 21 mph 1005.8mb 35f
2:00pm 20 21 mph 1006mb 33f
1:00pm 20 22 mph 1007.3mb 34f
12:00pm 28 32 mph 1008.3mb 35f
11:00am 26 32 mph 1008.8mb 37f
10:00am 31 36 mph 1010.2mb 38f
9:00am 33 38 mph 1011.5mb 37f
8:00am 32 36 mph 1012.3mb 36f
7:00am 30 32 mph 1014mb 34f
6:00am 32 36 mph 1014.6mb 33f
5:00am 34 39 mph 1016.4mb 33f
4:00am 33 37 mph 1017.7mb 33f
3:00am 33 38 mph 1019.3mb 33f
2:00am 30 36 mph 1020.9mb 32f
1:00am 24 28 mph 1023mb 31f
12:00am 25 29 mph 1023.3mb 30f
Thu 11/16 11:00pm 24 26 mph 1024.3mb 28f
10:00pm 21 24 mph 1024.5mb 27f
9:00pm 21 23 mph 1025.2mb 26f
8:00pm 17 20 mph 1026mb 26f
7:00pm 10 14 mph 1026.9mb 24f
6:00pm 8 11 mph 1027.5mb 23f
5:00pm 10 13 mph 1027.6mb 22f
4:00pm 6 8 mph 1028.1mb 22f
3:00pm 3 5 mph 1027.8mb 22f
2:00pm 8 9 mph 1027.8mb 22f
1:00pm 6 8 mph 1027.8mb 22f
12:00pm 10 17 mph 1027.8mb 22f
11:00am 14 17 mph 1027.9mb 21f
10:00am 16 23 mph 1028mb 20f
9:00am 14 20 mph 1027.4mb 20f
8:00am 17 24 mph 1026.9mb 21f
7:00am 17 25 mph 1025.5mb 22f
6:00am 18 28 mph 1024.5mb 24f
5:00am 15 28 mph 1023.7mb 24f
4:00am 20 28 mph 1022.5mb 24f
3:00am 23 34 mph 1021.2mb 24f
2:00am 20 39 mph 1020.2mb 26f
1:00am 22 30 mph 1018.5mb 26f
12:00am 25 40 mph 1017mb 26f
Wed 11/15 11:00pm 20 33 mph 1015.6mb 27f
10:00pm 21 31 mph 1014.1mb 28f
9:00pm 24 36 mph 1012.7mb 28f
8:00pm 21 34 mph 1011.4mb 29f
7:00pm 24 39 mph 1010.1mb 30f
6:00pm 26 43 mph 1008.8mb 31f
5:00pm 26 40 mph 1007.5mb 33f
4:00pm 24 33 mph 1006.4mb 35f
3:00pm 23 29 mph 1005.5mb 37f
2:00pm 14 20 mph 1005mb 40f
1:00pm 13 16 mph 1004.7mb 41f
12:00pm 6 7 mph 1005.3mb 40f
11:00am 7 9 mph 1006.1mb 41f
10:00am 14 15 mph 1006.6mb 41f
9:00am 6 8 mph 1007.5mb 41f
8:00am 2 3 mph 1007.9mb 40f
7:00am 1 1 mph 1008.2mb 40f
6:00am 3 3 mph 1008.9mb 40f
5:00am 7 7 mph 1009.4mb 40f
4:00am 7 8 mph 1009.8mb 40f
3:00am 11 13 mph 1010.7mb 40f
2:00am 9 10 mph 1011.4mb 41f
1:00am 10 11 mph 1011.9mb 41f
12:00am 11 11 mph 1012.6mb 41f
Tue 11/14 11:00pm 9 10 mph 1013.1mb 41f
10:00pm 14 15 mph 1013.6mb 41f
9:00pm 17 20 mph 1014mb 41f
8:00pm 18 21 mph 1013.9mb 41f
7:00pm 18 18 mph 1014.6mb 41f
6:00pm 20 22 mph 1015.1mb 41f
5:00pm 23 25 mph 1015.3mb 41f
4:00pm 21 23 mph 1015.1mb 41f
3:00pm 20 21 mph 1015.7mb 40f
2:00pm 20 22 mph 1016.1mb 40f
1:00pm 20 24 mph 1016.7mb 40f
12:00pm 23 25 mph 1017.3mb 40f
11:00am 23 26 mph 1018.4mb 40f
10:00am 20 23 mph 1019.1mb 40f
9:00am 21 22 mph 1019.5mb 39f
8:00am 20 21 mph 1019.9mb 39f
7:00am 18 21 mph 1020.1mb 39f
6:00am 21 23 mph 1020.6mb 40f
5:00am 16 18 mph 1021.2mb 40f
4:00am 18 21 mph 1021.7mb 39f
3:00am 23 25 mph 1022.5mb 39f
2:00am 20 23 mph 1023.4mb 38f